Lineboro, Maryland
Current Conditions -  °F | °C
As of 5:15 PM on Thursday 23 Oct 2014 (Local Time) from KDMW Reporting Station
Overcast Overcast  
Wind Chill: 61°   Ceiling: 4500
Heat Index: 61°   Visibility: 10mi
Dew Point: 45°   Wind: 14mph
Humidity: 55%   Direction: 320°NW
Pressure: 29.84"   Gusts: 21mph
Location:  39.72°N, 76.84°W
Report Text: KDMW 232115Z AUTO 32012G18KT 10SM OVC045 16/07 A2984 RMK AO2
Loading
Personal Weather Stations






























Interactive Weather Map
Tropical Storm Tracking
New forecast layout! Learn more

10-Day Weather Forecast

Advertisements
Track Severe Weather on mobile